Pilliga, Australia

11:39 AM AEDT on November 18, 2017 (GMT +1100)
Narrabri | | Change Station

Elev 787 ft 30.32 °S, 149.83 °E | Updated 39 minutes ago

Overcast
Overcast
66 °F
Feels Like 66 °F
N
5
Wind Variable Wind from East

Today
High -- | Low -- °F
--% Chance of Precip.
Yesterday
High -- | Low -- °F
Precip. -- in
Pressure 30.04 in
Visibility 6.2 miles
Clouds Overcast 9800 ft
Dew Point 59 °F
Humidity 78%
Rainfall 0.00 in
Snow Depth Not available.
5:58 AM 7:41 PM
Waning Crescent, 0% visible
METAR YNBR 180000Z AUTO 10004KT 9999 -RA OVC098 19/15 Q1017
Pressure 30.04 in
Visibility 6.2 miles
Clouds Overcast 9800 ft
Dew Point 59 °F
Humidity 78%
Rainfall 0.00 in
Snow Depth Not available.
5:58 AM 7:41 PM
Waning Crescent, 0% visible
METAR YNBR 180000Z AUTO 10004KT 9999 -RA OVC098 19/15 Q1017

Get Severe Weather Alerts

Thanks for signing up!

Be on the lookout for a verification email in your inbox.

You'll start receiving the daily forecast at 6 AM.

×

10-Day Weather Forecast

×

Almanac

Astronomy

Nov. 18, 2017 Rise Set
Actual Time
Civil Twilight
Nautical Twilight
Astronomical Twilight
Moon
Length of Visible Light
Length of Day
Tomorrow will be .
, % of the Moon is Illuminated

Today's Extremes

Country Highs Country Lows

Community

WunderPhotos

Category 6

Welcome to Category 6. This is the collective home for Weather Underground's featured writeups by Dr. Jeff Masters (right), Bob Henson (left), Chris Burt, and other regular contributors.

Nearby

Air Quality

  Air Quality AQ Index Pollutant
Not available.

Snow Depth

Station Depth Elevation

Earthquake Activity

City Distance Mag. Time & Date
Minimum magnitude displayed is 2.5.

Coastal Water Temperatures

Place Temperature

Stations

Nearby Weather Stations

Station Location Temp. Windchill Dew Point Humidity Wind Precip. Elev Updated Type